N12KBM KBHM-KTCL
Flight info
| Callsign | N12KBM |
|---|---|
| Flight time | N/A |
| Altitude | VFR |
| Route | |
| Aircraft | PA28/L-VGD/C |
Departure
| Time | 2026-05-05 04:38 |
|---|---|
| Airport | Birmingham-Shuttlesworth International Airport (KBHM) |
Arrival
| Time | N/A |
|---|---|
| Airport | Tuscaloosa National Airport (KTCL) |
| Time | Latitude | Longitude | Altitude | Speed | Heading |
|---|---|---|---|---|---|
| 2026-05-05 04:30 | 33.56369 | -86.74501 | 620 ft | 0 kts | 77° |
| 2026-05-05 04:32 | 33.56368 | -86.74509 | 620 ft | 4 kts | 106° |
| 2026-05-05 04:32 | 33.56379 | -86.74522 | 629 ft | 5 kts | 332° |
| 2026-05-05 04:33 | 33.56378 | -86.74530 | 629 ft | 0 kts | 302° |
| 2026-05-05 04:35 | 33.56377 | -86.74528 | 630 ft | 0 kts | 298° |
| 2026-05-05 04:35 | 33.56406 | -86.74547 | 620 ft | 1 kts | 327° |
| 2026-05-05 04:35 | 33.56408 | -86.74606 | 618 ft | 0 kts | 189° |
| 2026-05-05 04:35 | 33.56377 | -86.74592 | 626 ft | 6 kts | 177° |
| 2026-05-05 04:36 | 33.56201 | -86.74595 | 611 ft | 28 kts | 178° |
| 2026-05-05 04:36 | 33.56117 | -86.74590 | 610 ft | 1 kts | 176° |
| 2026-05-05 04:36 | 33.56045 | -86.74590 | 609 ft | 19 kts | 182° |
| 2026-05-05 04:36 | 33.56014 | -86.74590 | 613 ft | 3 kts | 178° |
| 2026-05-05 04:37 | 33.55823 | -86.74590 | 604 ft | 24 kts | 185° |
| 2026-05-05 04:37 | 33.55774 | -86.74597 | 604 ft | 0 kts | 198° |
| 2026-05-05 04:37 | 33.55752 | -86.74628 | 603 ft | 9 kts | 267° |
| 2026-05-05 04:37 | 33.55752 | -86.74633 | 603 ft | 1 kts | 274° |
| 2026-05-05 04:38 | 33.55745 | -86.74695 | 608 ft | 0 kts | 292° |
| 2026-05-05 04:38 | 33.56041 | -86.74723 | 606 ft | 111 kts | 3° |
| 2026-05-05 04:38 | 33.57040 | -86.74699 | 1219 ft | 152 kts | 2° |
| 2026-05-05 04:38 | 33.58220 | -86.74634 | 2189 ft | 179 kts | 359° |
| 2026-05-05 04:39 | 33.59554 | -86.74792 | 3023 ft | 208 kts | 352° |
| 2026-05-05 04:39 | 33.60998 | -86.74981 | 3897 ft | 218 kts | 355° |
| 2026-05-05 04:39 | 33.62578 | -86.75085 | 4361 ft | 238 kts | 357° |
| 2026-05-05 04:39 | 33.64293 | -86.75225 | 4512 ft | 251 kts | 353° |
| 2026-05-05 04:40 | 33.66013 | -86.75599 | 4827 ft | 253 kts | 346° |
| 2026-05-05 04:40 | 33.67572 | -86.76558 | 4961 ft | 258 kts | 316° |
| 2026-05-05 04:40 | 33.68464 | -86.78415 | 4967 ft | 262 kts | 285° |
| 2026-05-05 04:40 | 33.68816 | -86.80558 | 4967 ft | 263 kts | 280° |
| 2026-05-05 04:41 | 33.69119 | -86.82729 | 4961 ft | 264 kts | 279° |
| 2026-05-05 04:41 | 33.69410 | -86.84903 | 4956 ft | 264 kts | 279° |
| 2026-05-05 04:41 | 33.69696 | -86.87078 | 4953 ft | 264 kts | 279° |
| 2026-05-05 04:41 | 33.69979 | -86.89254 | 4954 ft | 264 kts | 279° |
| 2026-05-05 04:42 | 33.70258 | -86.91428 | 4953 ft | 264 kts | 279° |
| 2026-05-05 04:42 | 33.70535 | -86.93603 | 4954 ft | 264 kts | 279° |
| 2026-05-05 04:42 | 33.70647 | -86.95789 | 4948 ft | 263 kts | 262° |
| 2026-05-05 04:42 | 33.69875 | -86.97749 | 4947 ft | 264 kts | 228° |
| 2026-05-05 04:43 | 33.68313 | -86.98844 | 4951 ft | 264 kts | 195° |
| 2026-05-05 04:43 | 33.66495 | -86.99195 | 4963 ft | 265 kts | 188° |
| 2026-05-05 04:43 | 33.64664 | -86.99461 | 4962 ft | 265 kts | 187° |
| 2026-05-05 04:43 | 33.62828 | -86.99706 | 4958 ft | 265 kts | 187° |
| 2026-05-05 04:44 | 33.60992 | -86.99942 | 4958 ft | 265 kts | 187° |
| 2026-05-05 04:44 | 33.59156 | -87.00175 | 4957 ft | 265 kts | 187° |
| 2026-05-05 04:44 | 33.57319 | -87.00403 | 4956 ft | 265 kts | 186° |
| 2026-05-05 04:44 | 33.55531 | -87.00885 | 4954 ft | 264 kts | 207° |
| 2026-05-05 04:45 | 33.53986 | -87.02073 | 4955 ft | 264 kts | 215° |
| 2026-05-05 04:45 | 33.52482 | -87.03341 | 4954 ft | 264 kts | 216° |
| 2026-05-05 04:45 | 33.51201 | -87.04890 | 4955 ft | 264 kts | 240° |
| 2026-05-05 04:45 | 33.50389 | -87.06856 | 4959 ft | 264 kts | 245° |
| 2026-05-05 04:46 | 33.49629 | -87.08853 | 4972 ft | 263 kts | 246° |
| 2026-05-05 04:46 | 33.48906 | -87.10797 | 5288 ft | 255 kts | 246° |
| 2026-05-05 04:46 | 33.48172 | -87.12750 | 5669 ft | 253 kts | 246° |
| 2026-05-05 04:46 | 33.47452 | -87.14639 | 6039 ft | 253 kts | 246° |
| 2026-05-05 04:47 | 33.46708 | -87.16582 | 6420 ft | 254 kts | 246° |
| 2026-05-05 04:47 | 33.45981 | -87.18482 | 6787 ft | 255 kts | 246° |
| 2026-05-05 04:47 | 33.45239 | -87.20415 | 7167 ft | 256 kts | 246° |
| 2026-05-05 04:47 | 33.44495 | -87.22356 | 7543 ft | 257 kts | 246° |
| 2026-05-05 04:48 | 33.43745 | -87.24306 | 7922 ft | 258 kts | 246° |
| 2026-05-05 04:48 | 33.42982 | -87.26293 | 8300 ft | 260 kts | 246° |
| 2026-05-05 04:48 | 33.42236 | -87.28234 | 8670 ft | 261 kts | 246° |
| 2026-05-05 04:48 | 33.41476 | -87.30213 | 9047 ft | 262 kts | 246° |
| 2026-05-05 04:49 | 33.40713 | -87.32201 | 9422 ft | 263 kts | 246° |
| 2026-05-05 04:49 | 33.39947 | -87.34197 | 9801 ft | 265 kts | 246° |
| 2026-05-05 04:49 | 33.39177 | -87.36202 | 10174 ft | 266 kts | 246° |
| 2026-05-05 04:49 | 33.38393 | -87.38245 | 10553 ft | 267 kts | 246° |
| 2026-05-05 04:50 | 33.37615 | -87.40268 | 10903 ft | 269 kts | 246° |
| 2026-05-05 04:50 | 33.36836 | -87.42306 | 10880 ft | 281 kts | 246° |
| 2026-05-05 04:50 | 33.36020 | -87.44478 | 10380 ft | 278 kts | 246° |
| 2026-05-05 04:50 | 33.35271 | -87.46476 | 9843 ft | 256 kts | 246° |
| 2026-05-05 04:51 | 33.34360 | -87.48282 | 8539 ft | 271 kts | 232° |
| 2026-05-05 04:51 | 33.33092 | -87.49811 | 7628 ft | 235 kts | 224° |
| 2026-05-05 04:51 | 33.31937 | -87.50977 | 6531 ft | 199 kts | 220° |
| 2026-05-05 04:51 | 33.30949 | -87.51987 | 5011 ft | 156 kts | 220° |
| 2026-05-05 04:52 | 33.30203 | -87.52709 | 4646 ft | 147 kts | 220° |
| 2026-05-05 04:52 | 33.29331 | -87.53500 | 4400 ft | 154 kts | 217° |
| 2026-05-05 04:52 | 33.28428 | -87.54310 | 3765 ft | 155 kts | 218° |
| 2026-05-05 04:52 | 33.27685 | -87.55008 | 2925 ft | 126 kts | 221° |
| 2026-05-05 04:53 | 33.27022 | -87.55705 | 2140 ft | 118 kts | 224° |
| 2026-05-05 04:53 | 33.26458 | -87.56315 | 1614 ft | 94 kts | 222° |
| 2026-05-05 04:53 | 33.25813 | -87.56979 | 1063 ft | 153 kts | 222° |
| 2026-05-05 04:53 | 33.25071 | -87.57743 | 1069 ft | 113 kts | 220° |
| 2026-05-05 04:54 | 33.24554 | -87.58237 | 967 ft | 95 kts | 219° |
| 2026-05-05 04:54 | 33.24006 | -87.58787 | 737 ft | 109 kts | 219° |
| 2026-05-05 04:54 | 33.23432 | -87.59393 | 586 ft | 109 kts | 225° |
| 2026-05-05 04:54 | 33.22871 | -87.60004 | 420 ft | 111 kts | 218° |
| 2026-05-05 04:55 | 33.22359 | -87.60525 | 222 ft | 92 kts | 219° |
| 2026-05-05 04:55 | 33.21836 | -87.61056 | 174 ft | 76 kts | 220° |
| 2026-05-05 04:55 | 33.26871 | -87.55873 | 1957 ft | 116 kts | 224° |